Time;durP1;ratioP1;P1;durP2;ratioP2;P2;SDS_P1;SDS_P2;PMS_P1;PMS_P2;Temp;Humidity;BMP_temperature;BMP_pressure;BME280_temperature;BME280_humidity;BME280_pressure;Samples;Min_cycle;Max_cycle;Signal;HPM_P1;HPM_P2
2021/01/11 00:00:55;;;;;;;109.93;55.47;;;0.60;2201.60;;;;;;4840033;29;20037;-76
2021/01/11 00:03:21;;;;;;;112.80;55.70;;;0.50;2201.60;;;;;;4842095;29;20040;-76
2021/01/11 00:05:46;;;;;;;108.90;55.45;;;0.50;2201.60;;;;;;4840627;29;20034;-77
2021/01/11 00:08:12;;;;;;;111.30;61.03;;;0.50;2201.60;;;;;;4841260;29;20065;-77
2021/01/11 00:10:38;;;;;;;107.93;55.05;;;0.50;2201.60;;;;;;4842906;29;20113;-77
2021/01/11 00:13:04;;;;;;;110.95;53.15;;;0.60;2201.60;;;;;;4840386;29;20037;-77
2021/01/11 00:15:29;;;;;;;106.38;54.00;;;0.60;2201.60;;;;;;4841570;29;20038;-77
2021/01/11 00:17:55;;;;;;;114.78;55.47;;;0.60;2201.60;;;;;;4841338;29;20443;-77
2021/01/11 00:20:21;;;;;;;108.50;54.03;;;0.60;2201.60;;;;;;4844393;29;20041;-77
2021/01/11 00:22:46;;;;;;;105.72;51.03;;;0.60;2201.60;;;;;;4844951;29;20037;-78
2021/01/11 00:25:13;;;;;;;103.55;51.55;;;0.60;2201.60;;;;;;4847512;29;20041;-78
2021/01/11 00:27:40;;;;;;;96.72;50.83;;;0.70;2201.60;;;;;;4843512;29;20049;-78
2021/01/11 00:30:07;;;;;;;105.90;57.33;;;0.60;2201.60;;;;;;4842609;29;20037;-78
2021/01/11 00:32:37;;;;;;;109.05;57.78;;;0.60;2201.60;;;;;;4842015;29;20030;-78
2021/01/11 00:35:04;;;;;;;108.70;50.88;;;0.60;2201.60;;;;;;4843282;29;20042;-78
2021/01/11 00:37:30;;;;;;;110.05;52.03;;;0.60;2201.60;;;;;;4842336;29;20447;-77
2021/01/11 00:39:56;;;;;;;112.72;54.03;;;0.70;2201.60;;;;;;4841183;29;20029;-77
2021/01/11 00:42:21;;;;;;;110.22;56.15;;;0.70;2201.60;;;;;;4833079;29;20095;-78
2021/01/11 00:44:48;;;;;;;110.03;56.38;;;0.70;2201.60;;;;;;4836835;29;20395;-78
2021/01/11 00:47:15;;;;;;;110.65;58.22;;;0.60;2201.60;;;;;;4842660;29;20030;-78
2021/01/11 00:49:41;;;;;;;112.03;54.92;;;0.60;2201.60;;;;;;4843726;29;20037;-78
2021/01/11 00:52:07;;;;;;;119.45;57.60;;;0.60;2201.60;;;;;;4842955;29;20500;-77
2021/01/11 00:54:33;;;;;;;114.85;59.92;;;0.60;2201.60;;;;;;4842351;29;20112;-78
2021/01/11 00:56:58;;;;;;;121.07;59.03;;;0.60;2201.60;;;;;;4838913;29;20038;-77
2021/01/11 00:59:25;;;;;;;113.40;59.22;;;0.60;2201.60;;;;;;4824915;29;20037;-78
2021/01/11 01:01:53;;;;;;;121.40;56.45;;;0.60;2201.60;;;;;;4824731;29;20494;-78
2021/01/11 01:04:20;;;;;;;110.95;56.58;;;0.60;2201.60;;;;;;4838704;29;20054;-79
2021/01/11 01:06:46;;;;;;;116.32;58.88;;;0.60;2201.60;;;;;;4841540;29;20631;-78
2021/01/11 01:09:12;;;;;;;112.97;55.28;;;0.60;2201.60;;;;;;4842211;29;20030;-79
2021/01/11 01:11:40;;;;;;;113.38;55.95;;;0.60;2201.60;;;;;;4841588;29;20041;-79
2021/01/11 01:14:06;;;;;;;128.68;61.40;;;0.60;2201.60;;;;;;4841368;29;20050;-78
2021/01/11 01:16:32;;;;;;;109.65;55.30;;;0.80;2201.60;;;;;;4841492;29;20398;-78
2021/01/11 01:18:58;;;;;;;117.75;57.70;;;0.60;2201.60;;;;;;4842022;29;20034;-78
2021/01/11 01:21:24;;;;;;;119.88;58.67;;;0.60;2201.60;;;;;;4841256;29;20116;-78
2021/01/11 01:23:50;;;;;;;115.20;57.03;;;0.60;2201.60;;;;;;4841411;29;20126;-78
2021/01/11 01:26:15;;;;;;;115.07;55.13;;;0.70;2201.60;;;;;;4843209;29;20034;-79
2021/01/11 01:28:41;;;;;;;106.75;54.78;;;0.60;2201.60;;;;;;4841226;29;20034;-78
2021/01/11 01:31:07;;;;;;;112.65;54.90;;;0.60;2201.60;;;;;;4840742;29;20033;-79
2021/01/11 01:33:33;;;;;;;102.10;54.22;;;0.70;2201.60;;;;;;4842619;29;20033;-79
2021/01/11 01:35:58;;;;;;;150.32;80.22;;;0.70;2201.60;;;;;;4842993;29;20069;-79
2021/01/11 01:38:24;;;;;;;96.10;52.28;;;0.70;2201.60;;;;;;4840983;29;20064;-79
2021/01/11 01:40:50;;;;;;;102.03;52.92;;;0.80;2201.60;;;;;;4841925;29;20082;-79
2021/01/11 01:43:15;;;;;;;94.50;49.70;;;0.80;2201.60;;;;;;4842327;29;20030;-79
2021/01/11 01:45:42;;;;;;;109.85;54.97;;;0.80;2201.60;;;;;;4841222;29;20030;-79
2021/01/11 01:48:09;;;;;;;98.03;49.33;;;0.80;2201.60;;;;;;4840854;29;20037;-78
2021/01/11 01:50:36;;;;;;;98.25;52.03;;;0.80;2201.60;;;;;;4841054;29;20482;-79
2021/01/11 01:53:03;;;;;;;100.85;52.10;;;25.60;2201.60;;;;;;4841518;29;20030;-79
2021/01/11 01:55:29;;;;;;;96.40;50.60;;;0.80;2201.60;;;;;;4840964;29;20684;-79
2021/01/11 01:57:58;;;;;;;101.25;50.05;;;0.80;2201.60;;;;;;4841168;29;20034;-79
2021/01/11 02:00:24;;;;;;;94.55;53.15;;;0.80;2201.60;;;;;;4840864;29;20382;-79
2021/01/11 02:02:50;;;;;;;105.00;52.67;;;0.80;2201.60;;;;;;4842547;29;20022;-79
2021/01/11 02:05:16;;;;;;;100.85;53.88;;;0.80;2201.60;;;;;;4841683;29;20402;-79
2021/01/11 02:07:41;;;;;;;106.35;53.50;;;0.70;2201.60;;;;;;4841341;29;20034;-79
2021/01/11 02:10:22;;;;;;;100.90;51.70;;;0.70;2201.60;;;;;;4840727;29;20038;-80
2021/01/11 02:13:33;;;;;;;100.07;52.35;;;0.70;2201.60;;;;;;4841593;29;20026;-81
2021/01/11 02:16:36;;;;;;;93.07;47.50;;;0.70;2201.60;;;;;;4824891;29;20048;-79
2021/01/11 02:19:17;;;;;;;108.50;51.63;;;0.80;2201.60;;;;;;4839012;29;20038;-79
2021/01/11 02:22:04;;;;;;;93.93;48.63;;;0.70;2201.60;;;;;;4840140;29;20030;-79
2021/01/11 02:24:35;;;;;;;;;;;0.70;2201.60;;;;;;4841429;29;20030;-78
2021/01/11 02:27:16;;;;;;;98.57;49.40;;;0.70;2201.60;;;;;;4840520;29;19908;-79
2021/01/11 02:30:06;;;;;;;90.35;45.90;;;0.60;2201.60;;;;;;4841070;29;20413;-79
2021/01/11 02:32:33;;;;;;;96.78;49.92;;;0.60;2201.60;;;;;;4841041;29;20473;-79
2021/01/11 02:35:02;;;;;;;105.13;54.78;;;0.60;2201.60;;;;;;4841932;29;20025;-79
2021/01/11 02:37:29;;;;;;;91.90;51.72;;;0.70;2201.60;;;;;;4841096;29;20454;-79
2021/01/11 02:39:55;;;;;;;97.22;52.03;;;0.70;2201.60;;;;;;4840453;29;20022;-79
2021/01/11 02:42:21;;;;;;;102.35;53.70;;;0.70;2201.60;;;;;;4841888;29;20466;-79
2021/01/11 02:44:48;;;;;;;94.35;50.97;;;0.70;2201.60;;;;;;4841678;29;20033;-79
2021/01/11 02:47:19;;;;;;;95.20;51.78;;;0.70;2201.60;;;;;;4841896;29;20386;-79
2021/01/11 02:49:50;;;;;;;105.07;52.70;;;0.70;2201.60;;;;;;4842105;29;20025;-79
2021/01/11 02:52:26;;;;;;;103.07;52.72;;;0.70;2201.60;;;;;;4840264;29;20034;-79
2021/01/11 02:54:59;;;;;;;97.47;52.42;;;0.70;2201.60;;;;;;4840648;29;20050;-79
2021/01/11 02:57:58;;;;;;;108.35;54.47;;;0.70;2201.60;;;;;;4841609;29;20069;-79
2021/01/11 03:00:24;;;;;;;96.95;51.45;;;0.70;2201.60;;;;;;4752269;30;20028;-79
2021/01/11 03:02:52;;;;;;;99.63;54.72;;;0.80;2201.60;;;;;;4767553;30;20127;-79
2021/01/11 03:05:19;;;;;;;100.55;51.67;;;0.70;2201.60;;;;;;4752209;30;20486;-79
2021/01/11 03:07:57;;;;;;;109.28;55.70;;;0.70;2201.60;;;;;;4752427;30;20031;-79
2021/01/11 03:10:23;;;;;;;98.13;48.35;;;0.70;2201.60;;;;;;4752493;30;20085;-79
2021/01/11 03:12:49;;;;;;;92.40;48.28;;;0.70;2201.60;;;;;;4751680;30;20657;-79
2021/01/11 03:15:18;;;;;;;106.30;51.35;;;0.70;2201.60;;;;;;4767151;30;20035;-79
2021/01/11 03:17:44;;;;;;;97.25;51.65;;;0.60;2201.60;;;;;;4766908;30;20115;-79
2021/01/11 03:20:11;;;;;;;92.85;49.33;;;0.60;2201.60;;;;;;4752922;30;20101;-79
2021/01/11 03:22:37;;;;;;;96.07;51.60;;;0.60;2201.60;;;;;;4752149;30;20591;-78
2021/01/11 03:25:03;;;;;;;96.63;52.03;;;0.60;2201.60;;;;;;4752472;30;20032;-78
2021/01/11 03:27:29;;;;;;;97.13;49.55;;;0.70;2201.60;;;;;;4767515;30;20039;-79
2021/01/11 03:29:55;;;;;;;107.30;54.38;;;0.70;2201.60;;;;;;4752535;30;20043;-79
2021/01/11 03:32:22;;;;;;;102.97;56.05;;;0.70;2201.60;;;;;;4767815;30;20039;-79
2021/01/11 03:34:48;;;;;;;99.22;56.17;;;0.80;2201.60;;;;;;4752120;30;20044;-79
2021/01/11 03:37:14;;;;;;;97.60;52.95;;;0.80;2201.60;;;;;;4814690;29;20126;-79
2021/01/11 03:39:39;;;;;;;101.03;51.65;;;0.80;2201.60;;;;;;4841381;29;20496;-79
2021/01/11 03:42:05;;;;;;;102.60;57.25;;;0.80;2201.60;;;;;;4841816;29;20037;-79
2021/01/11 03:44:31;;;;;;;99.47;53.78;;;0.80;2201.60;;;;;;4841190;29;20026;-78
2021/01/11 03:46:56;;;;;;;116.38;57.45;;;0.80;2201.60;;;;;;4841791;29;20066;-79
2021/01/11 03:49:22;;;;;;;107.22;52.22;;;0.80;2201.60;;;;;;4841390;29;20030;-79
2021/01/11 03:51:48;;;;;;;98.45;52.78;;;0.80;2201.60;;;;;;4840087;29;20030;-79
2021/01/11 03:54:14;;;;;;;98.13;54.22;;;0.70;2201.60;;;;;;4841624;29;20050;-79
2021/01/11 03:56:39;;;;;;;94.20;53.45;;;0.70;2201.60;;;;;;4843552;29;20049;-79
2021/01/11 03:59:05;;;;;;;105.95;52.63;;;0.70;2201.60;;;;;;4844341;29;20034;-78
2021/01/11 04:01:35;;;;;;;100.97;54.85;;;0.70;2201.60;;;;;;4843529;29;20116;-79
2021/01/11 04:04:00;;;;;;;111.43;54.92;;;0.70;2201.60;;;;;;4843670;29;20050;-79
2021/01/11 04:06:26;;;;;;;101.25;53.13;;;0.70;2201.60;;;;;;4843456;29;20037;-79
2021/01/11 04:08:52;;;;;;;101.07;54.38;;;0.70;2201.60;;;;;;4843908;29;20136;-79
2021/01/11 04:11:21;;;;;;;110.60;56.70;;;0.70;2201.60;;;;;;4843913;29;20493;-79
2021/01/11 04:13:50;;;;;;;97.95;53.92;;;0.70;2201.60;;;;;;4844133;29;20124;-79
2021/01/11 04:16:16;;;;;;;103.22;55.67;;;0.70;2201.60;;;;;;4844129;29;20030;-79
2021/01/11 04:18:42;;;;;;;110.35;58.35;;;0.80;2201.60;;;;;;4843380;29;20034;-79
2021/01/11 04:21:12;;;;;;;99.55;54.20;;;0.80;2201.60;;;;;;4843954;29;20041;-79
2021/01/11 04:23:39;;;;;;;102.97;56.35;;;0.80;2201.60;;;;;;4843836;29;20034;-79
2021/01/11 04:26:06;;;;;;;110.57;56.95;;;0.80;2201.60;;;;;;4845552;29;20501;-79
2021/01/11 04:28:32;;;;;;;108.25;55.70;;;0.80;2201.60;;;;;;4844844;29;20026;-79
2021/01/11 04:30:57;;;;;;;104.07;55.90;;;0.80;2201.60;;;;;;4845035;29;20041;-79
2021/01/11 04:33:23;;;;;;;107.22;59.50;;;0.90;2201.60;;;;;;4844465;29;20046;-79
2021/01/11 04:35:49;;;;;;;102.18;54.50;;;0.90;2201.60;;;;;;4843755;29;20580;-79
2021/01/11 04:38:14;;;;;;;103.03;53.95;;;0.90;2201.60;;;;;;4843469;29;20116;-78
2021/01/11 04:40:40;;;;;;;106.32;57.75;;;0.90;2201.60;;;;;;4843128;29;20038;-78
2021/01/11 04:43:17;;;;;;;118.35;60.30;;;0.90;2201.60;;;;;;4844112;29;20030;-78
2021/01/11 04:45:44;;;;;;;115.10;58.35;;;0.90;2201.60;;;;;;4843114;29;20048;-78
2021/01/11 04:48:14;;;;;;;106.70;55.05;;;0.90;2201.60;;;;;;4843894;29;20041;-78
2021/01/11 04:50:40;;;;;;;106.40;56.40;;;25.60;2201.60;;;;;;4843428;29;20060;-79
2021/01/11 04:53:11;;;;;;;109.32;58.78;;;0.90;2201.60;;;;;;4844182;29;20478;-78
2021/01/11 04:55:38;;;;;;;103.13;55.85;;;25.60;2201.60;;;;;;4844062;29;20041;-79
2021/01/11 04:58:11;;;;;;;106.88;57.85;;;25.60;2201.60;;;;;;4844050;29;20096;-79
2021/01/11 05:00:39;;;;;;;111.18;56.83;;;25.60;2201.60;;;;;;4843904;29;20038;-79
2021/01/11 05:03:10;;;;;;;105.05;57.28;;;0.90;2201.60;;;;;;4843550;29;20038;-78
2021/01/11 05:05:37;;;;;;;116.50;58.70;;;0.90;2201.60;;;;;;4844894;29;20091;-79
2021/01/11 05:08:03;;;;;;;113.07;57.45;;;0.90;2201.60;;;;;;4842771;29;20097;-79
2021/01/11 05:10:31;;;;;;;112.18;57.05;;;0.90;2201.60;;;;;;4844226;29;20036;-79
2021/01/11 05:13:02;;;;;;;102.93;58.33;;;0.90;2201.60;;;;;;4845081;29;20112;-79
2021/01/11 05:15:30;;;;;;;106.45;53.47;;;0.90;2201.60;;;;;;4843197;29;20037;-79
2021/01/11 05:17:56;;;;;;;107.50;57.03;;;25.60;2201.60;;;;;;4844892;29;20048;-79
2021/01/11 05:20:27;;;;;;;98.35;53.53;;;25.60;2201.60;;;;;;4843552;29;20058;-79
2021/01/11 05:22:54;;;;;;;100.93;56.25;;;25.60;2201.60;;;;;;4844356;29;20026;-78
2021/01/11 05:25:22;;;;;;;98.97;52.42;;;25.60;2201.60;;;;;;4845167;29;20058;-79
2021/01/11 05:28:15;;;;;;;101.95;53.95;;;25.60;2201.60;;;;;;4846519;29;20069;-79
2021/01/11 05:30:43;;;;;;;104.18;55.47;;;25.60;2201.60;;;;;;4842033;29;20171;-79
2021/01/11 05:33:38;;;;;;;109.75;55.15;;;25.60;2201.60;;;;;;4841573;29;20044;-79
2021/01/11 05:36:10;;;;;;;111.75;56.55;;;25.60;2201.60;;;;;;4771212;30;20126;-79
2021/01/11 05:38:38;;;;;;;105.65;54.28;;;0.90;2201.60;;;;;;4771545;30;20066;-80
2021/01/11 05:41:24;;;;;;;97.18;52.70;;;25.60;2201.60;;;;;;4771219;30;20040;-79
2021/01/11 05:44:08;;;;;;;102.63;55.38;;;0.90;2201.60;;;;;;4786317;29;20074;-79
2021/01/11 05:46:34;;;;;;;102.07;54.13;;;25.60;2201.60;;;;;;4785314;29;20057;-79
2021/01/11 05:49:10;;;;;;;95.25;54.13;;;25.60;2201.60;;;;;;4770563;30;20039;-79
2021/01/11 05:51:38;;;;;;;98.95;53.85;;;0.90;2201.60;;;;;;4770895;30;20111;-79
2021/01/11 05:54:05;;;;;;;105.18;54.53;;;25.60;2201.60;;;;;;4771277;30;20035;-79
2021/01/11 05:56:50;;;;;;;95.30;50.92;;;25.60;2201.60;;;;;;4785964;29;20043;-79
2021/01/11 05:59:16;;;;;;;107.22;54.53;;;25.60;2201.60;;;;;;4786065;29;20484;-80
2021/01/11 06:01:41;;;;;;;112.13;55.20;;;25.60;2201.60;;;;;;4770469;30;20031;-79
2021/01/11 06:04:07;;;;;;;95.85;54.75;;;0.90;2201.60;;;;;;4785147;30;20086;-79
2021/01/11 06:06:33;;;;;;;94.57;53.17;;;0.90;2201.60;;;;;;4771239;30;20046;-79
2021/01/11 06:08:58;;;;;;;101.30;55.97;;;0.90;2201.60;;;;;;4770503;30;20130;-78
2021/01/11 06:11:28;;;;;;;102.80;50.95;;;25.60;2201.60;;;;;;4774074;29;20043;-79
2021/01/11 06:13:57;;;;;;;98.57;55.42;;;25.60;2201.60;;;;;;4840781;29;20402;-79
2021/01/11 06:16:25;;;;;;;102.88;55.72;;;25.60;2201.60;;;;;;4840927;29;20045;-78
2021/01/11 06:18:52;;;;;;;102.00;53.88;;;25.60;2201.60;;;;;;4840194;29;20037;-79
2021/01/11 06:21:19;;;;;;;95.03;50.45;;;0.90;2201.60;;;;;;4841106;29;20030;-78
2021/01/11 06:23:45;;;;;;;93.38;49.92;;;25.60;2201.60;;;;;;4840536;29;20026;-78
2021/01/11 06:26:30;;;;;;;97.07;53.92;;;0.90;2201.60;;;;;;4840469;29;20026;-78
2021/01/11 06:28:57;;;;;;;88.95;48.92;;;25.60;2201.60;;;;;;4840887;29;20142;-78
2021/01/11 06:31:28;;;;;;;93.93;51.17;;;0.90;2201.60;;;;;;4840281;29;20037;-79
2021/01/11 06:33:54;;;;;;;100.07;52.92;;;0.90;2201.60;;;;;;4840675;29;20090;-78
2021/01/11 06:36:28;;;;;;;94.07;50.05;;;0.90;2201.60;;;;;;4840470;29;20037;-79
2021/01/11 06:38:54;;;;;;;100.13;52.55;;;0.80;2201.60;;;;;;4841783;29;20041;-78
2021/01/11 06:41:26;;;;;;;89.90;51.13;;;0.90;2201.60;;;;;;4840614;29;20073;-78
2021/01/11 06:43:54;;;;;;;96.43;51.65;;;0.90;2201.60;;;;;;4840333;29;20034;-78
2021/01/11 06:46:29;;;;;;;87.85;52.42;;;0.90;2201.60;;;;;;4841260;29;20026;-78
2021/01/11 06:48:55;;;;;;;97.30;53.72;;;0.90;2201.60;;;;;;4840434;29;20030;-78
2021/01/11 06:51:32;;;;;;;89.57;50.30;;;25.60;2201.60;;;;;;4840114;29;20041;-77
2021/01/11 06:54:11;;;;;;;95.40;50.03;;;25.60;2201.60;;;;;;4840769;29;20030;-77
2021/01/11 06:56:38;;;;;;;104.43;54.63;;;25.60;2201.60;;;;;;4840237;29;20104;-77
2021/01/11 06:59:17;;;;;;;102.35;58.03;;;25.60;2201.60;;;;;;4840635;29;20397;-77
2021/01/11 07:01:45;;;;;;;108.30;55.70;;;25.70;2201.60;;;;;;4840438;29;20038;-78
2021/01/11 07:04:31;;;;;;;84.90;52.45;;;25.70;2201.60;;;;;;4840173;29;20054;-78
2021/01/11 07:07:01;;;;;;;96.00;52.50;;;25.70;2201.60;;;;;;4840183;29;20076;-78
2021/01/11 07:09:27;;;;;;;86.63;49.60;;;25.70;2201.60;;;;;;4841690;29;20061;-78
2021/01/11 07:12:02;;;;;;;89.63;51.58;;;25.70;2201.60;;;;;;4840212;29;20379;-77
2021/01/11 07:14:54;;;;;;;95.85;51.15;;;25.70;2201.60;;;;;;4840037;29;20030;-78
2021/01/11 07:17:43;;;;;;;91.05;47.88;;;25.60;2201.60;;;;;;4841296;29;20444;-78
2021/01/11 07:20:13;;;;;;;86.93;49.53;;;25.70;2201.60;;;;;;4841282;29;20022;-78
2021/01/11 07:22:40;;;;;;;92.28;50.60;;;25.70;2201.60;;;;;;4840545;29;20030;-78
2021/01/11 07:25:08;;;;;;;77.78;43.53;;;25.70;2201.60;;;;;;4839946;29;20037;-79
2021/01/11 07:27:34;;;;;;;88.13;52.28;;;25.70;2201.60;;;;;;4839144;29;20052;-78
2021/01/11 07:30:00;;;;;;;89.80;52.10;;;25.70;2201.60;;;;;;4842795;29;20034;-78
2021/01/11 07:32:30;;;;;;;103.85;60.10;;;25.70;2201.60;;;;;;4843356;29;20494;-78
2021/01/11 07:35:00;;;;;;;135.77;69.50;;;25.70;2201.60;;;;;;4843962;29;20041;-78
2021/01/11 07:37:26;;;;;;;120.22;67.25;;;25.80;2201.60;;;;;;4843588;29;20034;-78
2021/01/11 07:39:52;;;;;;;104.60;56.75;;;25.80;2201.60;;;;;;4843899;29;20529;-78
2021/01/11 07:42:20;;;;;;;132.07;72.18;;;25.80;2201.60;;;;;;4843381;29;20124;-78
2021/01/11 07:44:46;;;;;;;91.32;52.58;;;25.80;2201.60;;;;;;4843406;29;20033;-78
2021/01/11 07:47:16;;;;;;;81.65;46.85;;;25.80;2201.60;;;;;;4843790;29;20037;-79
2021/01/11 07:49:44;;;;;;;85.30;48.15;;;25.80;2201.60;;;;;;4843477;29;20032;-79
2021/01/11 07:52:11;;;;;;;103.30;55.85;;;25.80;2201.60;;;;;;4843662;29;20050;-78
2021/01/11 07:54:38;;;;;;;82.72;49.45;;;0.90;2201.60;;;;;;4843371;29;20584;-79
2021/01/11 07:57:14;;;;;;;91.93;53.15;;;25.80;2201.60;;;;;;4843895;29;20034;-79
2021/01/11 07:59:40;;;;;;;;;;;25.90;2201.60;;;;;;4843385;29;20030;-79
2021/01/11 08:02:11;;;;;;;60.13;35.50;;;26.00;2201.60;;;;;;4843838;29;19915;-79
2021/01/11 08:04:39;;;;;;;91.90;50.97;;;25.90;2201.60;;;;;;4843793;29;20320;-78
2021/01/11 08:07:08;;;;;;;80.80;46.33;;;25.90;2201.60;;;;;;4843001;29;20082;-79
2021/01/11 08:09:35;;;;;;;92.63;48.13;;;25.90;2201.60;;;;;;4845005;29;20022;-79
2021/01/11 08:12:15;;;;;;;93.50;52.30;;;25.90;2201.60;;;;;;4843143;29;20793;-79
2021/01/11 08:14:41;;;;;;;74.95;41.42;;;26.00;2201.60;;;;;;4843687;29;20056;-78
2021/01/11 08:17:13;;;;;;;77.85;42.22;;;26.00;2201.60;;;;;;4843166;29;20033;-79
2021/01/11 08:19:42;;;;;;;80.40;45.55;;;26.00;2201.60;;;;;;4842193;29;20042;-80
2021/01/11 08:22:10;;;;;;;73.53;43.92;;;26.00;2201.60;;;;;;4843545;29;20034;-79
2021/01/11 08:24:37;;;;;;;77.45;46.30;;;26.00;2201.60;;;;;;4842833;29;20486;-79
2021/01/11 08:27:06;;;;;;;76.95;45.10;;;26.10;2201.60;;;;;;4843200;29;20490;-79
2021/01/11 08:29:38;;;;;;;82.22;45.90;;;26.10;2201.60;;;;;;4842696;29;20109;-78
2021/01/11 08:32:12;;;;;;;79.95;46.75;;;26.10;2201.60;;;;;;4843652;29;20053;-79
2021/01/11 08:34:40;;;;;;;79.15;46.08;;;26.20;2201.60;;;;;;4839313;29;20120;-79
2021/01/11 08:37:27;;;;;;;82.85;44.88;;;26.20;2201.60;;;;;;4844089;29;20038;-79
2021/01/11 08:40:05;;;;;;;67.63;38.50;;;26.20;2201.60;;;;;;4843952;29;20037;-78
2021/01/11 08:42:31;;;;;;;74.70;45.20;;;26.20;2201.60;;;;;;4844455;29;20030;-79
2021/01/11 08:45:42;;;;;;;72.78;41.13;;;26.20;2201.60;;;;;;4841805;29;20394;-78
2021/01/11 08:48:16;;;;;;;76.47;45.50;;;26.20;2201.60;;;;;;4840056;29;20045;-78
2021/01/11 08:50:55;;;;;;;81.95;42.65;;;26.20;2201.60;;;;;;4842727;29;20038;-79
2021/01/11 08:53:30;;;;;;;75.72;45.63;;;26.30;2201.60;;;;;;4843763;29;20029;-78
2021/01/11 08:56:12;;;;;;;78.85;45.75;;;26.30;2201.60;;;;;;4844244;29;20026;-78
2021/01/11 08:58:46;;;;;;;82.80;49.60;;;26.40;2201.60;;;;;;4844414;29;20029;-78
2021/01/11 09:01:14;;;;;;;67.05;43.90;;;26.40;2201.60;;;;;;4842419;29;20048;-77
2021/01/11 09:03:49;;;;;;;71.22;43.00;;;26.30;2201.60;;;;;;4842361;29;20038;-78
2021/01/11 09:06:38;;;;;;;67.27;40.43;;;26.30;2201.60;;;;;;4844405;29;20486;-77
2021/01/11 09:09:12;;;;;;;55.40;36.42;;;26.30;2201.60;;;;;;4841815;29;20030;-78
2021/01/11 09:11:39;;;;;;;62.45;38.00;;;26.30;2201.60;;;;;;4842082;29;20517;-78
2021/01/11 09:14:15;;;;;;;58.22;35.38;;;26.30;2201.60;;;;;;4843929;29;20033;-77
2021/01/11 09:16:42;;;;;;;56.88;34.65;;;26.30;2201.60;;;;;;4843915;29;20912;-77
2021/01/11 09:19:09;;;;;;;59.97;36.00;;;26.30;2201.60;;;;;;4842375;29;20149;-77
2021/01/11 09:21:35;;;;;;;52.75;36.45;;;26.40;2201.60;;;;;;4842716;29;20026;-77
2021/01/11 09:24:01;;;;;;;54.97;34.92;;;26.50;2201.60;;;;;;4842809;29;20040;-77
2021/01/11 09:26:31;;;;;;;59.20;35.92;;;26.30;2201.60;;;;;;4841589;29;20042;-78
2021/01/11 09:28:57;;;;;;;63.33;37.25;;;26.30;2201.60;;;;;;4842269;29;20034;-78
2021/01/11 09:31:23;;;;;;;56.95;34.80;;;26.40;2201.60;;;;;;4842622;29;20041;-77
2021/01/11 09:33:48;;;;;;;62.50;36.03;;;26.40;2201.60;;;;;;4842010;29;20050;-76
2021/01/11 09:36:14;;;;;;;56.22;33.97;;;26.50;2201.60;;;;;;4842591;29;20034;-77
2021/01/11 09:38:40;;;;;;;49.40;33.28;;;26.50;2201.60;;;;;;4843560;29;20044;-79
2021/01/11 09:41:05;;;;;;;55.75;34.92;;;26.50;2201.60;;;;;;4844395;29;20034;-81
2021/01/11 09:43:31;;;;;;;54.85;34.83;;;26.50;2201.60;;;;;;4844640;29;20099;-81
2021/01/11 09:45:59;;;;;;;57.33;34.75;;;26.50;2201.60;;;;;;4846780;29;20069;-81
2021/01/11 09:48:25;;;;;;;63.03;36.33;;;26.50;2201.60;;;;;;4844353;29;20045;-80
2021/01/11 09:50:51;;;;;;;56.10;34.67;;;51.20;2227.20;;;;;;4843941;29;20133;-81
2021/01/11 09:53:17;;;;;;;56.15;35.22;;;51.20;2227.20;;;;;;4844010;29;20042;-80
2021/01/11 09:55:42;;;;;;;56.33;34.45;;;51.20;2227.20;;;;;;4845099;29;20534;-81
2021/01/11 09:58:16;;;;;;;56.90;33.63;;;51.20;2227.20;;;;;;4844895;29;20041;-82
2021/01/11 10:00:42;;;;;;;59.83;38.78;;;51.30;2227.20;;;;;;4844420;29;20034;-82
2021/01/11 10:03:08;;;;;;;57.00;35.38;;;51.20;2227.20;;;;;;4844245;29;20162;-80
2021/01/11 10:05:34;;;;;;;56.35;34.55;;;51.30;2227.20;;;;;;4842996;29;20046;-81
2021/01/11 10:08:00;;;;;;;56.60;36.53;;;51.20;2227.20;;;;;;4845217;29;20094;-80
2021/01/11 10:10:26;;;;;;;53.38;32.72;;;51.20;2227.20;;;;;;4843482;29;20038;-80
2021/01/11 10:12:52;;;;;;;56.72;34.47;;;51.20;2227.20;;;;;;4844310;29;20542;-80
2021/01/11 10:15:18;;;;;;;55.20;35.67;;;51.20;2227.20;;;;;;4844101;29;20120;-81
2021/01/11 10:17:44;;;;;;;57.10;36.33;;;51.20;2227.20;;;;;;4842922;29;20073;-80
2021/01/11 10:20:10;;;;;;;66.45;41.53;;;51.20;2227.20;;;;;;4843559;29;20487;-79
2021/01/11 10:22:36;;;;;;;56.95;35.75;;;51.20;2227.20;;;;;;4843067;29;20077;-79
2021/01/11 10:25:03;;;;;;;56.53;35.53;;;51.30;2227.20;;;;;;4845835;29;20403;-81
2021/01/11 10:27:28;;;;;;;55.33;36.92;;;51.40;2227.20;;;;;;4844807;29;20129;-81
2021/01/11 10:29:54;;;;;;;65.30;41.60;;;51.40;2227.20;;;;;;4845507;29;20133;-81
2021/01/11 10:32:20;;;;;;;60.83;35.25;;;51.40;2227.20;;;;;;4847643;29;20097;-81
2021/01/11 10:34:45;;;;;;;57.38;35.22;;;51.40;2227.20;;;;;;4853435;29;20071;-80
2021/01/11 10:37:11;;;;;;;57.22;34.80;;;51.40;2227.20;;;;;;4845594;29;20033;-82
2021/01/11 10:39:37;;;;;;;64.57;40.97;;;51.50;2227.20;;;;;;4843897;29;20061;-82
2021/01/11 10:42:04;;;;;;;63.17;40.80;;;51.50;2227.20;;;;;;4843919;29;20060;-82
2021/01/11 10:44:30;;;;;;;66.63;41.63;;;51.50;2227.20;;;;;;4843893;29;20033;-82
2021/01/11 10:46:59;;;;;;;61.60;38.03;;;51.50;2227.20;;;;;;4842123;29;20549;-82
2021/01/11 10:49:26;;;;;;;63.35;37.63;;;51.60;2227.20;;;;;;4842115;29;20086;-82
2021/01/11 10:51:54;;;;;;;59.85;38.80;;;51.70;2201.60;;;;;;4843328;29;20034;-81
2021/01/11 10:54:19;;;;;;;67.72;39.80;;;51.70;2201.60;;;;;;4842132;29;20121;-81
2021/01/11 10:56:45;;;;;;;54.67;37.42;;;51.60;2227.20;;;;;;4843567;29;20095;-82
2021/01/11 10:59:11;;;;;;;58.60;38.83;;;51.50;2227.20;;;;;;4842091;29;20042;-81
2021/01/11 11:01:37;;;;;;;54.60;37.05;;;51.60;2227.20;;;;;;4844401;29;20030;-83
2021/01/11 11:04:04;;;;;;;63.45;42.17;;;51.60;2227.20;;;;;;4844693;29;20046;-82
2021/01/11 11:06:30;;;;;;;66.97;45.53;;;51.60;2227.20;;;;;;4842129;29;20038;-79
2021/01/11 11:08:56;;;;;;;66.10;40.92;;;51.70;2227.20;;;;;;4841419;29;20050;-78
2021/01/11 11:11:22;;;;;;;63.92;40.15;;;51.80;2227.20;;;;;;4839245;29;20042;-77
2021/01/11 11:13:48;;;;;;;62.00;39.92;;;51.80;2201.60;;;;;;4835387;29;20038;-76
2021/01/11 11:16:14;;;;;;;62.88;39.30;;;51.80;2227.20;;;;;;4838517;29;20026;-77
2021/01/11 11:18:42;;;;;;;61.20;37.53;;;51.90;2201.60;;;;;;4839106;29;20049;-77
2021/01/11 11:21:08;;;;;;;62.35;38.60;;;51.90;2176.00;;;;;;4838582;29;20038;-76
2021/01/11 11:23:35;;;;;;;67.85;41.00;;;52.10;2176.00;;;;;;4838668;29;20038;-77
2021/01/11 11:26:01;;;;;;;65.63;41.63;;;51.90;2176.00;;;;;;4839859;29;20558;-76
2021/01/11 11:28:28;;;;;;;64.88;40.05;;;51.80;2201.60;;;;;;4837273;29;20038;-76
2021/01/11 11:30:54;;;;;;;66.95;41.78;;;51.80;2201.60;;;;;;4838428;29;20042;-77
2021/01/11 11:33:20;;;;;;;66.07;43.58;;;51.80;2201.60;;;;;;4839231;29;20033;-77
2021/01/11 11:35:46;;;;;;;71.30;41.47;;;51.80;2201.60;;;;;;4841253;29;20041;-76
2021/01/11 11:38:12;;;;;;;69.70;44.78;;;51.80;2201.60;;;;;;4840279;29;20086;-76
2021/01/11 11:40:38;;;;;;;72.28;45.55;;;51.80;2201.60;;;;;;4839496;29;20069;-76
2021/01/11 11:43:04;;;;;;;72.68;47.85;;;51.90;2201.60;;;;;;4840039;29;20054;-77
2021/01/11 11:45:31;;;;;;;72.30;43.83;;;51.90;2201.60;;;;;;4839816;29;20782;-76
2021/01/11 11:47:57;;;;;;;74.80;46.47;;;51.80;2227.20;;;;;;4839321;29;20124;-77
2021/01/11 11:50:23;;;;;;;69.32;44.47;;;51.70;2227.20;;;;;;4839058;29;20044;-77
2021/01/11 11:52:49;;;;;;;73.65;45.20;;;51.70;2227.20;;;;;;4838852;29;20037;-76
2021/01/11 11:55:15;;;;;;;68.05;44.85;;;51.70;2227.20;;;;;;4839672;29;20034;-76
2021/01/11 11:57:41;;;;;;;70.95;44.55;;;51.70;2201.60;;;;;;4841894;29;20038;-78
2021/01/11 12:00:09;;;;;;;71.57;47.00;;;51.70;2227.20;;;;;;4839534;29;20045;-75
2021/01/11 12:02:35;;;;;;;76.50;49.63;;;51.60;2227.20;;;;;;4838846;29;20030;-76
2021/01/11 12:05:01;;;;;;;94.53;57.67;;;51.60;2227.20;;;;;;4840248;29;20546;-76
2021/01/11 12:07:27;;;;;;;84.18;49.80;;;51.60;2227.20;;;;;;4839637;29;20482;-76
2021/01/11 12:09:54;;;;;;;77.65;45.30;;;51.70;2227.20;;;;;;4840211;29;20022;-77
2021/01/11 12:12:20;;;;;;;77.68;47.53;;;51.70;2227.20;;;;;;4841128;29;20271;-75
2021/01/11 12:14:46;;;;;;;77.32;45.72;;;51.70;2227.20;;;;;;4841253;29;20045;-76
2021/01/11 12:17:12;;;;;;;61.83;39.08;;;51.80;2227.20;;;;;;4843646;29;20486;-76